sensor_id;sensor_type;location;lat;lon;timestamp;pressure;altitude;pressure_sealevel;temperature;humidity
68712;BME280;55690;51.566;19.198;2022-08-01T00:02:19;101417.35;;;14.38;100.00
68712;BME280;55690;51.566;19.198;2022-08-01T00:06:26;101413.52;;;14.29;100.00
68712;BME280;55690;51.566;19.198;2022-08-01T00:10:35;101422.82;;;14.26;100.00
68712;BME280;55690;51.566;19.198;2022-08-01T00:22:50;101411.85;;;14.15;100.00
68712;BME280;55690;51.566;19.198;2022-08-01T00:26:56;101406.87;;;14.09;100.00
68712;BME280;55690;51.566;19.198;2022-08-01T00:31:06;101407.74;;;14.10;100.00
68712;BME280;55690;51.566;19.198;2022-08-01T00:39:15;101400.14;;;14.02;100.00
68712;BME280;55690;51.566;19.198;2022-08-01T00:43:24;101406.71;;;13.99;100.00
68712;BME280;55690;51.566;19.198;2022-08-01T00:51:34;101409.52;;;13.87;100.00
68712;BME280;55690;51.566;19.198;2022-08-01T00:55:40;101402.58;;;13.83;100.00
68712;BME280;55690;51.566;19.198;2022-08-01T00:59:46;101404.79;;;13.78;100.00
68712;BME280;55690;51.566;19.198;2022-08-01T01:03:52;101410.48;;;13.75;100.00
68712;BME280;55690;51.566;19.198;2022-08-01T01:12:15;101404.62;;;13.68;100.00
68712;BME280;55690;51.566;19.198;2022-08-01T01:16:21;101408.91;;;13.59;100.00
68712;BME280;55690;51.566;19.198;2022-08-01T01:24:40;101407.41;;;13.55;100.00
68712;BME280;55690;51.566;19.198;2022-08-01T01:37:09;101396.69;;;13.41;100.00
68712;BME280;55690;51.566;19.198;2022-08-01T01:41:15;101404.87;;;13.41;100.00
68712;BME280;55690;51.566;19.198;2022-08-01T01:45:18;101394.30;;;13.37;100.00
68712;BME280;55690;51.566;19.198;2022-08-01T01:49:23;101396.73;;;13.28;100.00
68712;BME280;55690;51.566;19.198;2022-08-01T01:53:32;101399.91;;;13.22;100.00
68712;BME280;55690;51.566;19.198;2022-08-01T01:57:41;101394.23;;;13.25;100.00
68712;BME280;55690;51.566;19.198;2022-08-01T02:01:51;101388.24;;;13.20;100.00
68712;BME280;55690;51.566;19.198;2022-08-01T02:05:54;101386.39;;;13.21;100.00
68712;BME280;55690;51.566;19.198;2022-08-01T02:09:59;101383.44;;;13.11;100.00
68712;BME280;55690;51.566;19.198;2022-08-01T02:22:21;101359.75;;;12.88;100.00
68712;BME280;55690;51.566;19.198;2022-08-01T02:26:27;101381.01;;;12.95;100.00
68712;BME280;55690;51.566;19.198;2022-08-01T02:34:41;101396.73;;;12.79;100.00
68712;BME280;55690;51.566;19.198;2022-08-01T02:38:49;101396.95;;;12.76;100.00
68712;BME280;55690;51.566;19.198;2022-08-01T02:47:01;101395.53;;;12.71;100.00
68712;BME280;55690;51.566;19.198;2022-08-01T02:55:11;101402.19;;;12.66;100.00
68712;BME280;55690;51.566;19.198;2022-08-01T02:59:16;101401.53;;;12.63;100.00
68712;BME280;55690;51.566;19.198;2022-08-01T03:07:02;101401.31;;;12.66;100.00
68712;BME280;55690;51.566;19.198;2022-08-01T03:11:05;101396.41;;;12.71;100.00
68712;BME280;55690;51.566;19.198;2022-08-01T03:15:11;101392.70;;;12.72;100.00
68712;BME280;55690;51.566;19.198;2022-08-01T03:19:18;101380.72;;;12.62;100.00
68712;BME280;55690;51.566;19.198;2022-08-01T03:23:24;101387.48;;;12.56;100.00
68712;BME280;55690;51.566;19.198;2022-08-01T03:31:36;101395.22;;;12.62;100.00
68712;BME280;55690;51.566;19.198;2022-08-01T03:35:47;101388.67;;;12.65;100.00
68712;BME280;55690;51.566;19.198;2022-08-01T03:39:59;101386.71;;;12.67;100.00
68712;BME280;55690;51.566;19.198;2022-08-01T03:44:05;101392.70;;;12.72;100.00
68712;BME280;55690;51.566;19.198;2022-08-01T03:48:18;101277.64;;;12.07;100.00
68712;BME280;55690;51.566;19.198;2022-08-01T03:52:22;101392.03;;;12.81;100.00
68712;BME280;55690;51.566;19.198;2022-08-01T03:56:27;101404.02;;;12.91;100.00
68712;BME280;55690;51.566;19.198;2022-08-01T04:00:29;101403.56;;;12.97;100.00
68712;BME280;55690;51.566;19.198;2022-08-01T04:04:31;101406.04;;;13.00;100.00
68712;BME280;55690;51.566;19.198;2022-08-01T04:08:37;101406.57;;;13.06;100.00
68712;BME280;55690;51.566;19.198;2022-08-01T04:12:39;101409.73;;;13.12;100.00
68712;BME280;55690;51.566;19.198;2022-08-01T04:16:43;101409.95;;;13.22;100.00
68712;BME280;55690;51.566;19.198;2022-08-01T04:20:49;101411.70;;;13.23;100.00
68712;BME280;55690;51.566;19.198;2022-08-01T04:24:57;101406.77;;;13.28;100.00
68712;BME280;55690;51.566;19.198;2022-08-01T04:29:02;101404.56;;;13.33;100.00
68712;BME280;55690;51.566;19.198;2022-08-01T04:33:09;101418.63;;;13.40;100.00
68712;BME280;55690;51.566;19.198;2022-08-01T04:37:15;101416.92;;;13.50;100.00
68712;BME280;55690;51.566;19.198;2022-08-01T04:41:21;101417.16;;;13.71;100.00
68712;BME280;55690;51.566;19.198;2022-08-01T04:45:26;101409.66;;;13.85;100.00
68712;BME280;55690;51.566;19.198;2022-08-01T04:49:33;101406.01;;;14.09;100.00
68712;BME280;55690;51.566;19.198;2022-08-01T04:53:38;101410.14;;;14.25;100.00
68712;BME280;55690;51.566;19.198;2022-08-01T04:57:46;101411.07;;;14.48;100.00
68712;BME280;55690;51.566;19.198;2022-08-01T05:01:51;101414.20;;;14.66;100.00
68712;BME280;55690;51.566;19.198;2022-08-01T05:05:57;101412.08;;;14.92;100.00
68712;BME280;55690;51.566;19.198;2022-08-01T05:10:05;101409.71;;;15.10;100.00
68712;BME280;55690;51.566;19.198;2022-08-01T05:14:09;101399.21;;;15.26;100.00
68712;BME280;55690;51.566;19.198;2022-08-01T05:18:15;101404.67;;;15.37;100.00
68712;BME280;55690;51.566;19.198;2022-08-01T05:22:22;101400.30;;;15.46;100.00
68712;BME280;55690;51.566;19.198;2022-08-01T05:26:28;101403.24;;;15.65;100.00
68712;BME280;55690;51.566;19.198;2022-08-01T05:30:34;101409.24;;;15.91;100.00
68712;BME280;55690;51.566;19.198;2022-08-01T05:34:40;101409.59;;;16.18;100.00
68712;BME280;55690;51.566;19.198;2022-08-01T05:38:46;101404.74;;;16.52;100.00
68712;BME280;55690;51.566;19.198;2022-08-01T05:42:52;101403.22;;;16.90;100.00
68712;BME280;55690;51.566;19.198;2022-08-01T05:46:58;101403.58;;;17.06;100.00
68712;BME280;55690;51.566;19.198;2022-08-01T05:51:05;101400.36;;;17.51;100.00
68712;BME280;55690;51.566;19.198;2022-08-01T05:55:11;101402.58;;;17.95;100.00
68712;BME280;55690;51.566;19.198;2022-08-01T05:59:18;101413.81;;;18.41;100.00
68712;BME280;55690;51.566;19.198;2022-08-01T06:03:23;101413.38;;;18.45;100.00
68712;BME280;55690;51.566;19.198;2022-08-01T06:07:29;101408.91;;;18.91;100.00
68712;BME280;55690;51.566;19.198;2022-08-01T06:11:36;101410.13;;;19.06;100.00
68712;BME280;55690;51.566;19.198;2022-08-01T06:15:42;101403.97;;;19.22;100.00
68712;BME280;55690;51.566;19.198;2022-08-01T06:19:48;101416.62;;;19.42;100.00
68712;BME280;55690;51.566;19.198;2022-08-01T06:23:54;101417.38;;;19.98;100.00
68712;BME280;55690;51.566;19.198;2022-08-01T06:28:01;101409.88;;;20.25;100.00
68712;BME280;55690;51.566;19.198;2022-08-01T06:32:06;101421.63;;;20.71;100.00
68712;BME280;55690;51.566;19.198;2022-08-01T06:36:13;101417.64;;;21.00;100.00
68712;BME280;55690;51.566;19.198;2022-08-01T06:40:19;101423.62;;;20.61;100.00
68712;BME280;55690;51.566;19.198;2022-08-01T06:44:25;101418.54;;;20.74;100.00
68712;BME280;55690;51.566;19.198;2022-08-01T06:48:31;101425.52;;;21.20;100.00
68712;BME280;55690;51.566;19.198;2022-08-01T06:56:43;101427.45;;;21.28;100.00
68712;BME280;55690;51.566;19.198;2022-08-01T07:00:50;101414.44;;;21.54;100.00
68712;BME280;55690;51.566;19.198;2022-08-01T07:09:02;101421.06;;;21.86;100.00
68712;BME280;55690;51.566;19.198;2022-08-01T07:13:17;101411.88;;;21.77;100.00
68712;BME280;55690;51.566;19.198;2022-08-01T07:17:37;101408.38;;;21.51;100.00
68712;BME280;55690;51.566;19.198;2022-08-01T07:21:39;101403.77;;;21.84;100.00
68712;BME280;55690;51.566;19.198;2022-08-01T07:25:41;101395.49;;;21.92;99.38
68712;BME280;55690;51.566;19.198;2022-08-01T07:29:43;101406.02;;;22.70;100.00
68712;BME280;55690;51.566;19.198;2022-08-01T07:33:45;101409.63;;;22.95;99.03
68712;BME280;55690;51.566;19.198;2022-08-01T07:37:46;101404.10;;;23.34;100.00
68712;BME280;55690;51.566;19.198;2022-08-01T07:41:51;101408.13;;;23.62;97.05
68712;BME280;55690;51.566;19.198;2022-08-01T07:50:05;101407.99;;;23.55;92.95
68712;BME280;55690;51.566;19.198;2022-08-01T07:54:13;101416.81;;;23.51;95.31
68712;BME280;55690;51.566;19.198;2022-08-01T07:58:16;101410.14;;;23.37;93.68
68712;BME280;55690;51.566;19.198;2022-08-01T08:02:22;101405.68;;;23.90;94.86
68712;BME280;55690;51.566;19.198;2022-08-01T08:06:28;101401.59;;;24.46;93.76
68712;BME280;55690;51.566;19.198;2022-08-01T08:10:34;101402.99;;;23.43;91.83
68712;BME280;55690;51.566;19.198;2022-08-01T08:14:41;101402.49;;;23.78;94.67
68712;BME280;55690;51.566;19.198;2022-08-01T08:18:46;101408.32;;;23.83;96.25
68712;BME280;55690;51.566;19.198;2022-08-01T08:22:53;101415.36;;;23.71;95.84
68712;BME280;55690;51.566;19.198;2022-08-01T08:27:00;101409.83;;;23.32;90.94
68712;BME280;55690;51.566;19.198;2022-08-01T08:31:05;101413.58;;;23.78;91.10
68712;BME280;55690;51.566;19.198;2022-08-01T08:35:11;101407.49;;;23.44;88.99
68712;BME280;55690;51.566;19.198;2022-08-01T08:39:18;101410.87;;;24.16;90.48
68712;BME280;55690;51.566;19.198;2022-08-01T08:43:25;101410.92;;;24.08;87.15
68712;BME280;55690;51.566;19.198;2022-08-01T08:47:32;101413.52;;;24.32;86.89
68712;BME280;55690;51.566;19.198;2022-08-01T08:51:38;101417.69;;;24.51;89.95
68712;BME280;55690;51.566;19.198;2022-08-01T08:55:42;101414.28;;;24.64;91.00
68712;BME280;55690;51.566;19.198;2022-08-01T08:59:49;101410.78;;;24.47;91.07
68712;BME280;55690;51.566;19.198;2022-08-01T09:03:54;101417.32;;;24.54;85.91
68712;BME280;55690;51.566;19.198;2022-08-01T09:08:00;101412.03;;;24.44;83.92
68712;BME280;55690;51.566;19.198;2022-08-01T09:12:06;101418.93;;;24.48;87.54
68712;BME280;55690;51.566;19.198;2022-08-01T09:16:16;101426.47;;;24.40;86.42
68712;BME280;55690;51.566;19.198;2022-08-01T09:20:23;101431.84;;;24.18;87.42
68712;BME280;55690;51.566;19.198;2022-08-01T09:24:27;101432.63;;;24.04;86.33
68712;BME280;55690;51.566;19.198;2022-08-01T09:28:31;101426.52;;;24.32;84.30
68712;BME280;55690;51.566;19.198;2022-08-01T09:36:56;101435.59;;;24.48;83.91
68712;BME280;55690;51.566;19.198;2022-08-01T09:41:00;101430.90;;;24.49;83.73
68712;BME280;55690;51.566;19.198;2022-08-01T09:45:03;101431.41;;;24.30;84.34
68712;BME280;55690;51.566;19.198;2022-08-01T09:49:06;101427.86;;;24.59;84.65
68712;BME280;55690;51.566;19.198;2022-08-01T09:53:09;101435.37;;;24.87;86.55
68712;BME280;55690;51.566;19.198;2022-08-01T09:57:16;101428.27;;;24.85;84.44
68712;BME280;55690;51.566;19.198;2022-08-01T10:01:21;101436.90;;;24.38;83.47
68712;BME280;55690;51.566;19.198;2022-08-01T10:05:34;101431.90;;;24.33;82.79
68712;BME280;55690;51.566;19.198;2022-08-01T10:09:36;101422.87;;;24.54;82.82
68712;BME280;55690;51.566;19.198;2022-08-01T10:13:39;101428.05;;;24.57;83.77
68712;BME280;55690;51.566;19.198;2022-08-01T10:22:01;101423.80;;;25.28;82.43
68712;BME280;55690;51.566;19.198;2022-08-01T10:26:07;101415.85;;;25.25;82.34
68712;BME280;55690;51.566;19.198;2022-08-01T10:30:09;101415.01;;;25.10;81.27
68712;BME280;55690;51.566;19.198;2022-08-01T10:34:12;101410.78;;;24.99;80.97
68712;BME280;55690;51.566;19.198;2022-08-01T10:38:19;101411.23;;;25.32;81.21
68712;BME280;55690;51.566;19.198;2022-08-01T10:42:22;101414.41;;;25.29;79.70
68712;BME280;55690;51.566;19.198;2022-08-01T10:46:30;101415.46;;;25.28;81.17
68712;BME280;55690;51.566;19.198;2022-08-01T10:50:41;101414.22;;;25.16;82.55
68712;BME280;55690;51.566;19.198;2022-08-01T10:54:44;101413.53;;;25.43;82.39
68712;BME280;55690;51.566;19.198;2022-08-01T10:58:47;101419.10;;;25.43;85.25
68712;BME280;55690;51.566;19.198;2022-08-01T11:03:00;101412.76;;;25.49;80.12
68712;BME280;55690;51.566;19.198;2022-08-01T11:11:13;101410.60;;;25.01;81.28
68712;BME280;55690;51.566;19.198;2022-08-01T11:15:17;101397.73;;;25.14;79.92
68712;BME280;55690;51.566;19.198;2022-08-01T11:23:49;101418.05;;;25.15;82.20
68712;BME280;55690;51.566;19.198;2022-08-01T11:36:21;101408.95;;;25.21;80.33
68712;BME280;55690;51.566;19.198;2022-08-01T11:44:27;101399.59;;;26.15;79.80
68712;BME280;55690;51.566;19.198;2022-08-01T11:48:30;101397.23;;;26.62;78.29
68712;BME280;55690;51.566;19.198;2022-08-01T11:52:32;101396.94;;;26.78;80.24
68712;BME280;55690;51.566;19.198;2022-08-01T11:56:37;101394.70;;;26.67;75.20
68712;BME280;55690;51.566;19.198;2022-08-01T12:00:40;101398.30;;;27.23;79.65
68712;BME280;55690;51.566;19.198;2022-08-01T12:04:53;101400.63;;;26.85;75.47
68712;BME280;55690;51.566;19.198;2022-08-01T12:13:08;101403.66;;;26.62;73.85
68712;BME280;55690;51.566;19.198;2022-08-01T12:17:11;101399.61;;;26.65;72.83
68712;BME280;55690;51.566;19.198;2022-08-01T12:21:12;101401.10;;;26.95;74.91
68712;BME280;55690;51.566;19.198;2022-08-01T12:25:17;101390.55;;;27.19;74.50
68712;BME280;55690;51.566;19.198;2022-08-01T12:33:32;101399.71;;;27.54;76.24
68712;BME280;55690;51.566;19.198;2022-08-01T12:37:43;101393.90;;;27.48;76.39
68712;BME280;55690;51.566;19.198;2022-08-01T12:41:45;101381.57;;;27.71;73.18
68712;BME280;55690;51.566;19.198;2022-08-01T12:45:49;101372.41;;;27.42;66.59
68712;BME280;55690;51.566;19.198;2022-08-01T12:49:51;101384.14;;;27.79;66.10
68712;BME280;55690;51.566;19.198;2022-08-01T12:53:53;101386.09;;;27.85;69.17
68712;BME280;55690;51.566;19.198;2022-08-01T12:58:05;101391.22;;;27.68;67.75
68712;BME280;55690;51.566;19.198;2022-08-01T13:02:08;101386.60;;;27.47;68.46
68712;BME280;55690;51.566;19.198;2022-08-01T13:06:14;101386.98;;;27.38;65.08
68712;BME280;55690;51.566;19.198;2022-08-01T13:10:28;101392.73;;;27.71;65.47
68712;BME280;55690;51.566;19.198;2022-08-01T13:14:30;101386.56;;;28.02;67.02
68712;BME280;55690;51.566;19.198;2022-08-01T13:18:33;101393.65;;;28.18;66.60
68712;BME280;55690;51.566;19.198;2022-08-01T13:22:36;101391.72;;;28.18;66.55
68712;BME280;55690;51.566;19.198;2022-08-01T13:26:53;101382.69;;;27.96;65.65
68712;BME280;55690;51.566;19.198;2022-08-01T13:31:01;101384.55;;;27.76;69.12
68712;BME280;55690;51.566;19.198;2022-08-01T13:35:08;101388.43;;;27.68;70.73
68712;BME280;55690;51.566;19.198;2022-08-01T13:39:11;101388.13;;;27.57;72.21
68712;BME280;55690;51.566;19.198;2022-08-01T13:47:27;101382.41;;;27.65;68.50
68712;BME280;55690;51.566;19.198;2022-08-01T13:51:29;101371.77;;;28.14;70.61
68712;BME280;55690;51.566;19.198;2022-08-01T13:55:31;101375.88;;;28.45;71.89
68712;BME280;55690;51.566;19.198;2022-08-01T13:59:33;101367.45;;;28.05;67.04
68712;BME280;55690;51.566;19.198;2022-08-01T14:03:35;101363.83;;;28.25;68.23
68712;BME280;55690;51.566;19.198;2022-08-01T14:07:36;101376.52;;;28.27;68.54
68712;BME280;55690;51.566;19.198;2022-08-01T14:11:44;101382.27;;;27.99;71.25
68712;BME280;55690;51.566;19.198;2022-08-01T14:15:45;101377.33;;;28.01;70.35
68712;BME280;55690;51.566;19.198;2022-08-01T14:19:49;101376.41;;;27.81;70.50
68712;BME280;55690;51.566;19.198;2022-08-01T14:23:55;101375.11;;;27.64;70.62
68712;BME280;55690;51.566;19.198;2022-08-01T14:28:01;101373.41;;;27.82;70.69
68712;BME280;55690;51.566;19.198;2022-08-01T14:32:07;101368.88;;;27.62;68.19
68712;BME280;55690;51.566;19.198;2022-08-01T14:36:13;101367.85;;;27.89;69.72
68712;BME280;55690;51.566;19.198;2022-08-01T14:40:19;101373.60;;;27.74;70.85
68712;BME280;55690;51.566;19.198;2022-08-01T14:44:26;101373.40;;;27.76;68.27
68712;BME280;55690;51.566;19.198;2022-08-01T14:48:32;101380.28;;;27.80;68.59
68712;BME280;55690;51.566;19.198;2022-08-01T14:52:39;101381.34;;;27.66;71.76
68712;BME280;55690;51.566;19.198;2022-08-01T15:00:50;101376.07;;;27.43;69.59
68712;BME280;55690;51.566;19.198;2022-08-01T15:04:56;101375.80;;;27.31;68.72
68712;BME280;55690;51.566;19.198;2022-08-01T15:09:02;101377.89;;;27.16;70.32
68712;BME280;55690;51.566;19.198;2022-08-01T15:13:09;101372.10;;;27.18;70.16
68712;BME280;55690;51.566;19.198;2022-08-01T15:17:26;101369.15;;;27.26;71.99
68712;BME280;55690;51.566;19.198;2022-08-01T15:21:23;101371.69;;;27.21;70.86
68712;BME280;55690;51.566;19.198;2022-08-01T15:25:27;101365.25;;;27.20;70.40
68712;BME280;55690;51.566;19.198;2022-08-01T15:29:33;101375.68;;;27.05;72.71
68712;BME280;55690;51.566;19.198;2022-08-01T15:33:43;101382.07;;;26.99;74.01
68712;BME280;55690;51.566;19.198;2022-08-01T15:37:45;101379.93;;;27.01;74.25
68712;BME280;55690;51.566;19.198;2022-08-01T15:41:52;101382.60;;;26.88;73.67
68712;BME280;55690;51.566;19.198;2022-08-01T15:45:58;101384.41;;;26.67;70.94
68712;BME280;55690;51.566;19.198;2022-08-01T15:50:05;101386.34;;;26.67;74.13
68712;BME280;55690;51.566;19.198;2022-08-01T15:54:12;101375.70;;;26.49;71.06
68712;BME280;55690;51.566;19.198;2022-08-01T15:58:16;101385.69;;;26.37;73.70
68712;BME280;55690;51.566;19.198;2022-08-01T16:02:23;101397.66;;;26.16;74.66
68712;BME280;55690;51.566;19.198;2022-08-01T16:06:29;101395.22;;;25.85;74.43
68712;BME280;55690;51.566;19.198;2022-08-01T16:10:35;101396.66;;;25.45;79.36
68712;BME280;55690;51.566;19.198;2022-08-01T16:14:41;101398.78;;;25.28;80.76
68712;BME280;55690;51.566;19.198;2022-08-01T16:18:47;101399.40;;;25.09;80.51
68712;BME280;55690;51.566;19.198;2022-08-01T16:22:53;101395.23;;;24.90;81.32
68712;BME280;55690;51.566;19.198;2022-08-01T16:26:59;101407.66;;;24.79;81.83
68712;BME280;55690;51.566;19.198;2022-08-01T16:31:06;101403.06;;;24.72;81.68
68712;BME280;55690;51.566;19.198;2022-08-01T16:35:12;101404.90;;;24.65;79.04
68712;BME280;55690;51.566;19.198;2022-08-01T16:39:19;101403.81;;;24.51;83.07
68712;BME280;55690;51.566;19.198;2022-08-01T16:43:24;101407.90;;;24.40;82.49
68712;BME280;55690;51.566;19.198;2022-08-01T16:47:30;101407.48;;;24.29;83.23
68712;BME280;55690;51.566;19.198;2022-08-01T16:51:36;101407.72;;;24.19;83.91
68712;BME280;55690;51.566;19.198;2022-08-01T16:55:42;101405.68;;;24.13;85.38
68712;BME280;55690;51.566;19.198;2022-08-01T16:59:48;101407.23;;;24.15;86.68
68712;BME280;55690;51.566;19.198;2022-08-01T17:03:55;101417.14;;;23.87;87.23
68712;BME280;55690;51.566;19.198;2022-08-01T17:08:01;101426.58;;;23.78;87.02
68712;BME280;55690;51.566;19.198;2022-08-01T17:12:07;101438.13;;;23.59;88.91
68712;BME280;55690;51.566;19.198;2022-08-01T17:16:13;101435.56;;;23.41;92.65
68712;BME280;55690;51.566;19.198;2022-08-01T17:20:21;101435.81;;;23.31;93.22
68712;BME280;55690;51.566;19.198;2022-08-01T17:24:26;101435.89;;;23.07;95.58
68712;BME280;55690;51.566;19.198;2022-08-01T17:28:32;101441.09;;;23.02;94.48
68712;BME280;55690;51.566;19.198;2022-08-01T17:32:39;101443.35;;;22.98;95.25
68712;BME280;55690;51.566;19.198;2022-08-01T17:36:44;101442.00;;;22.94;97.35
68712;BME280;55690;51.566;19.198;2022-08-01T17:40:50;101439.61;;;22.83;99.02
68712;BME280;55690;51.566;19.198;2022-08-01T17:44:57;101446.36;;;22.80;99.65
68712;BME280;55690;51.566;19.198;2022-08-01T17:49:03;101444.96;;;22.84;98.53
68712;BME280;55690;51.566;19.198;2022-08-01T17:53:09;101451.03;;;22.80;98.37
68712;BME280;55690;51.566;19.198;2022-08-01T17:57:15;101454.13;;;22.69;100.00
68712;BME280;55690;51.566;19.198;2022-08-01T18:01:21;101451.88;;;22.56;100.00
68712;BME280;55690;51.566;19.198;2022-08-01T18:05:27;101447.06;;;22.50;100.00
68712;BME280;55690;51.566;19.198;2022-08-01T18:09:34;101457.96;;;22.43;100.00
68712;BME280;55690;51.566;19.198;2022-08-01T18:13:39;101457.78;;;22.37;100.00
68712;BME280;55690;51.566;19.198;2022-08-01T18:17:46;101454.32;;;22.35;100.00
68712;BME280;55690;51.566;19.198;2022-08-01T18:21:52;101469.52;;;22.22;100.00
68712;BME280;55690;51.566;19.198;2022-08-01T18:25:59;101469.86;;;22.11;100.00
68712;BME280;55690;51.566;19.198;2022-08-01T18:30:07;101469.48;;;21.98;100.00
68712;BME280;55690;51.566;19.198;2022-08-01T18:34:14;101469.66;;;21.97;100.00
68712;BME280;55690;51.566;19.198;2022-08-01T18:38:17;101479.67;;;21.98;100.00
68712;BME280;55690;51.566;19.198;2022-08-01T18:42:23;101481.55;;;21.89;100.00
68712;BME280;55690;51.566;19.198;2022-08-01T18:46:29;101488.96;;;21.80;100.00
68712;BME280;55690;51.566;19.198;2022-08-01T18:50:35;101485.66;;;21.77;100.00
68712;BME280;55690;51.566;19.198;2022-08-01T18:54:41;101491.33;;;21.67;100.00
68712;BME280;55690;51.566;19.198;2022-08-01T18:58:47;101493.91;;;21.69;100.00
68712;BME280;55690;51.566;19.198;2022-08-01T19:02:53;101489.95;;;21.63;100.00
68712;BME280;55690;51.566;19.198;2022-08-01T19:06:59;101496.15;;;21.57;100.00
68712;BME280;55690;51.566;19.198;2022-08-01T19:11:06;101506.34;;;21.56;100.00
68712;BME280;55690;51.566;19.198;2022-08-01T19:15:12;101498.74;;;21.58;100.00
68712;BME280;55690;51.566;19.198;2022-08-01T19:19:18;101507.70;;;21.52;100.00
68712;BME280;55690;51.566;19.198;2022-08-01T19:23:24;101510.09;;;21.47;100.00
68712;BME280;55690;51.566;19.198;2022-08-01T19:27:43;101510.09;;;21.47;100.00
68712;BME280;55690;51.566;19.198;2022-08-01T19:31:47;101502.63;;;21.40;100.00
68712;BME280;55690;51.566;19.198;2022-08-01T19:35:51;101522.29;;;21.37;100.00
68712;BME280;55690;51.566;19.198;2022-08-01T19:39:57;101518.99;;;21.33;100.00
68712;BME280;55690;51.566;19.198;2022-08-01T19:44:04;101520.83;;;21.24;100.00
68712;BME280;55690;51.566;19.198;2022-08-01T19:48:07;101525.50;;;21.24;100.00
68712;BME280;55690;51.566;19.198;2022-08-01T19:52:14;101510.28;;;21.20;100.00
68712;BME280;55690;51.566;19.198;2022-08-01T19:56:19;101523.01;;;21.13;100.00
68712;BME280;55690;51.566;19.198;2022-08-01T20:00:24;101531.52;;;21.19;100.00
68712;BME280;55690;51.566;19.198;2022-08-01T20:04:29;101528.20;;;21.16;100.00
68712;BME280;55690;51.566;19.198;2022-08-01T20:08:39;101529.88;;;21.09;100.00
68712;BME280;55690;51.566;19.198;2022-08-01T20:12:43;101532.27;;;21.04;100.00
68712;BME280;55690;51.566;19.198;2022-08-01T20:16:48;101533.61;;;21.00;100.00
68712;BME280;55690;51.566;19.198;2022-08-01T20:20:55;101536.53;;;20.98;100.00
68712;BME280;55690;51.566;19.198;2022-08-01T20:25:00;101535.60;;;20.89;100.00
68712;BME280;55690;51.566;19.198;2022-08-01T20:29:06;101535.34;;;20.75;100.00
68712;BME280;55690;51.566;19.198;2022-08-01T20:33:12;101538.96;;;20.75;100.00
68712;BME280;55690;51.566;19.198;2022-08-01T20:37:21;101550.16;;;20.74;100.00
68712;BME280;55690;51.566;19.198;2022-08-01T20:41:26;101548.03;;;20.68;100.00
68712;BME280;55690;51.566;19.198;2022-08-01T20:45:31;101542.37;;;20.69;100.00
68712;BME280;55690;51.566;19.198;2022-08-01T20:53:47;101541.58;;;20.59;100.00
68712;BME280;55690;51.566;19.198;2022-08-01T20:57:54;101542.76;;;20.56;100.00
68712;BME280;55690;51.566;19.198;2022-08-01T21:06:07;101548.75;;;20.52;100.00
68712;BME280;55690;51.566;19.198;2022-08-01T21:10:15;101548.82;;;20.42;100.00
68712;BME280;55690;51.566;19.198;2022-08-01T21:14:19;101551.74;;;20.41;100.00
68712;BME280;55690;51.566;19.198;2022-08-01T21:22:48;101552.52;;;20.51;100.00
68712;BME280;55690;51.566;19.198;2022-08-01T21:26:52;101554.03;;;20.45;100.00
68712;BME280;55690;51.566;19.198;2022-08-01T21:30:56;101556.55;;;20.39;100.00
68712;BME280;55690;51.566;19.198;2022-08-01T21:34:59;101557.69;;;20.36;100.00
68712;BME280;55690;51.566;19.198;2022-08-01T21:39:04;101563.80;;;20.40;100.00
68712;BME280;55690;51.566;19.198;2022-08-01T21:43:07;101567.12;;;20.43;100.00
68712;BME280;55690;51.566;19.198;2022-08-01T21:47:10;101559.44;;;20.37;100.00
68712;BME280;55690;51.566;19.198;2022-08-01T21:56:19;101572.35;;;20.37;100.00
68712;BME280;55690;51.566;19.198;2022-08-01T21:59:54;101569.23;;;20.32;100.00
68712;BME280;55690;51.566;19.198;2022-08-01T22:03:58;101576.17;;;20.36;100.00
68712;BME280;55690;51.566;19.198;2022-08-01T22:08:02;101575.98;;;20.37;100.00
68712;BME280;55690;51.566;19.198;2022-08-01T22:12:06;101577.41;;;20.23;100.00
68712;BME280;55690;51.566;19.198;2022-08-01T22:16:09;101582.52;;;20.18;100.00
68712;BME280;55690;51.566;19.198;2022-08-01T22:20:15;101575.89;;;20.11;100.00
68712;BME280;55690;51.566;19.198;2022-08-01T22:24:18;101583.45;;;20.09;100.00
68712;BME280;55690;51.566;19.198;2022-08-01T22:28:20;101587.48;;;20.15;100.00
68712;BME280;55690;51.566;19.198;2022-08-01T22:32:26;101583.45;;;20.09;100.00
68712;BME280;55690;51.566;19.198;2022-08-01T22:36:31;101589.98;;;20.08;100.00
68712;BME280;55690;51.566;19.198;2022-08-01T22:40:33;101586.20;;;20.09;100.00
68712;BME280;55690;51.566;19.198;2022-08-01T22:48:55;101588.45;;;19.96;100.00
68712;BME280;55690;51.566;19.198;2022-08-01T22:53:05;101583.59;;;19.90;100.00
68712;BME280;55690;51.566;19.198;2022-08-01T22:57:19;101592.88;;;19.89;100.00
68712;BME280;55690;51.566;19.198;2022-08-01T23:01:25;101592.76;;;19.81;100.00
68712;BME280;55690;51.566;19.198;2022-08-01T23:09:33;101597.03;;;19.66;100.00
68712;BME280;55690;51.566;19.198;2022-08-01T23:13:36;101596.91;;;19.57;100.00
68712;BME280;55690;51.566;19.198;2022-08-01T23:17:39;101600.99;;;19.53;100.00
68712;BME280;55690;51.566;19.198;2022-08-01T23:21:44;101597.81;;;19.48;100.00
68712;BME280;55690;51.566;19.198;2022-08-01T23:25:47;101601.16;;;19.42;100.00